Friday, September 21, 2018, 9:25 PM EDT
Back to Local

KGON, Groton/new London Airport

Location: Groton, CT, United States Lat: 41.333
Local Time: 9:25 PM EDT ( 1:25 GMT) Lon: -72.05
Time Zone: US/Eastern Elev: 9 ft

Show me the last for .
Show Coded

Time T Td Feel RH Dir Speed Gust Alt SLP Vis Weather Sky Remarks
2018-09-21 20:56 70 64 - 81 190° 17 - 30.02 30.02 10 OVC048 None
2018-09-21 19:56 70 63 - 78 200° 17 - 30.04 30.03 10 OVC046 6-hr Min Temp (8pm): 68.0°F
6-hr Max Temp (8pm): 70.0°F
2018-09-21 18:56 69 62 - 78 190° 16 - 30.06 30.06 10 OVC044 None
2018-09-21 17:56 69 61 - 75 190° 15 - 30.09 30.09 10 OVC045 None
2018-09-21 17:03 69 61 - 75 190° 16 - 30.10 - 10 OVC047 None
2018-09-21 16:56 69 61 - 75 180° 15 - 30.11 30.10 10 BKN021 OVC047 None
2018-09-21 15:56 68 60 - 75 190° 17 - 30.14 30.14 10 BKN021 OVC047 None
2018-09-21 15:32 68 61 - 78 170° 15 - 30.15 - 10 BKN021 OVC047 None
2018-09-21 14:56 69 60 - 73 180° 15 - 30.16 30.16 10 OVC049 None
2018-09-21 13:56 69 59 - 70 180° 14 - 30.19 30.19 10 SCT023 BKN065 6-hr Min Temp (2pm): 64.9°F
6-hr Max Temp (2pm): 70.0°F
2018-09-21 12:56 69 59 - 70 170° 12 - 30.21 30.21 10 SCT023 BKN065 None
2018-09-21 12:53 70 59 - 68 160° 13 - 30.21 - 10 SCT023 BKN065 None
2018-09-21 12:44 69 59 - 70 170° 13 - 30.21 - 10 BKN024 BKN065 None
2018-09-21 12:37 69 59 - 70 160° 14 - 30.21 - 10 SCT024 OVC065 None
2018-09-21 12:19 68 58 - 70 150° 12 - 30.22 - 10 BKN025 OVC060 None
2018-09-21 11:56 68 58 - 70 140° 13 - 30.23 30.23 10 FEW025 BKN060 None
2018-09-21 11:53 68 57 - 68 150° 14 - 30.23 - 10 FEW025 BKN060 None
2018-09-21 11:06 68 57 - 67 150° 12 - 30.26 - 10 BKN025 None
2018-09-21 10:56 68 57 - 67 150° 12 - 30.26 30.26 10 SCT023 None
2018-09-21 09:56 66 57 - 72 140° 12 - 30.27 30.27 10 FEW023 OVC060 None
2018-09-21 09:33 65 56 - 72 130° 12 - 30.28 - 10 FEW023 OVC060 None
2018-09-21 09:15 66 56 - 69 130° 13 - 30.29 - 10 BKN023 OVC060 None
2018-09-21 08:56 66 57 - 72 130° 10 - 30.29 30.28 10 SCT022 None
2018-09-21 07:56 65 56 - 72 140° 10 - 30.29 30.29 10 CLR 6-hr Min Temp (8am): 63.0°F
6-hr Max Temp (8am): 64.9°F
2018-09-21 06:56 63 56 - 77 110° 8 - 30.29 30.29 10 SCT022 SCT060 None
2018-09-21 05:56 63 57 - 80 120° 8 - 30.28 30.28 10 SCT029 OVC038 None
2018-09-21 04:56 64 57 - 77 120° 9 - 30.27 30.27 10 OVC035 None
2018-09-21 03:56 64 57 - 77 120° 7 - 30.27 30.27 10 OVC034 None
2018-09-21 02:56 63 57 - 80 110° 10 - 30.26 30.26 10 SCT033 None
2018-09-21 02:30 64 57 - 77 120° 10 - 30.27 - 10 FEW021 BKN030 BKN036 None
2018-09-21 01:56 64 58 - 80 120° 10 - 30.27 30.27 10 BKN017 OVC025 6-hr Min Temp (2am): 63.0°F
6-hr Max Temp (2am): 64.9°F
2018-09-21 01:27 64 59 - 83 110° 8 - 30.28 - 10 BKN019 None
2018-09-21 00:56 64 59 - 83 130° 14 - 30.26 30.26 10 FEW016 SCT023 SCT036 24-hr Min Temp (1am): 57.9°F
24-hr Max Temp (1am): 73.0°F
2018-09-20 23:56 63 57 - 80 70° 6 - 30.28 30.28 10 SCT017 BKN022 OVC055 None
2018-09-20 22:56 63 57 - 80 80° 6 - 30.29 30.29 10 OVC055 None
2018-09-20 21:56 63 57 - 80 50° 9 - 30.28 30.28 10 FEW039 OVC048 None

Support USWX by starting your Amazon purchase here.